WEATHER DATA

TODAY
Time Temp. Dewp. Hum. Wind dir Wind speed Wind gust Bar. 1h Prec. 24h Prec.
00:02 3.8 3.2 96 45 0.3 0.8 1023.9 0.0000 0.0000
00:12 3.7 3.1 96 351 0.3 0.6 1023.9 0.0000 0.0000
00:22 3.7 3.1 96 270 0.3 0.6 1024 0.0000 0.0000
00:42 3.6 3 96 90 0.3 0.6 1024.1 0.0000 0.0000
00:52 3.6 3 96 225 0.3 0.6 1024.2 0.0000 0.0000
01:02 3.5 2.9 96 90 0.3 0.8 1024 0.0000 0.0000
01:12 3.5 2.9 96 270 0.3 1.9 1024.3 0.0000 0.0000
01:23 3.5 2.9 96 0 0.3 1.4 1024.4 0.0000 0.0000
01:32 3.5 2.9 96 270 0.3 1.4 1024.6 0.0000 0.0000
01:42 3.6 3 96 270 0.3 0.8 1024.8 0.1160 0.1000
01:53 3.7 3.1 96 45 0.3 0.6 1024.7 0.1160 0.1000
02:03 3.7 3.1 96 315 0.3 0.8 1024.2 0.1160 0.1000
02:12 3.8 3.2 96 225 0.3 0.8 1024 0.1160 0.1000
02:23 3.9 3.3 96 90 0.3 1.7 1023.6 0.1160 0.1000
02:33 4 3.4 96 270 0.3 0.8 1023.6 0.0000 0.1000
02:43 4.1 3.5 96 270 0.3 1.9 1023.9 0.0000 0.1000
02:52 4.2 3.6 96 270 0.3 0.6 1024 0.0000 0.1000
03:03 4.3 3.7 96 270 0.3 0.8 1024.2 0.0000 0.1000
03:13 4.4 3.8 96 315 0.3 0.8 1023.7 0.0000 0.1000
03:23 4.4 3.8 96 239 0.3 0.8 1023.7 0.0000 0.1000
03:33 4.5 3.9 96 45 0.3 1.4 1023.6 0.0000 0.1000
03:43 4.6 4 96 270 0.6 2.5 1024.1 0.0000 0.1000
03:53 4.6 4 96 270 0.6 2.5 1024.1 0.0000 0.1000
04:03 4.7 4.1 96 270 0.3 0.8 1024.4 0.0000 0.1000
04:14 4.7 4.1 96 233 0.3 0.8 1024.4 0.0000 0.1000
04:24 4.7 4.1 96 0.3 1.4 1024.5 0.0000 0.1000
04:33 4.6 4 96 153 0.3 1.4 1024.3 0.0000 0.1000
04:44 4.5 3.9 96 18 0.3 0.8 1024.5 0.0000 0.1000
04:54 4.5 3.9 96 135 0.3 1.4 1024.1 0.0000 0.1000
05:04 4.4 3.8 96 45 0.3 1.7 1024 0.0000 0.1000
05:14 4.4 3.8 96 333 0.6 1.7 1024.2 0.0000 0.1000
05:24 4.4 3.8 96 315 0.3 0.8 1024.3 0.0000 0.1000
05:34 4.4 3.8 96 135 0.3 0.8 1024.1 0.0000 0.1000
05:44 4.4 3.8 96 142 0.3 1.9 1024 0.0000 0.1000
05:54 4.4 3.8 96 270 0.3 1.4 1024.2 0.0000 0.1000
06:04 4.4 3.8 96 135 0.3 1.4 1024 0.1160 0.2000
06:14 4.5 3.9 96 270 0.3 1.4 1024 0.2320 0.3000
06:28 4.6 4 96 315 0.3 0.6 1023.8 0.3480 0.5000
06:38 4.7 4.1 96 270 0.3 0.8 1024 0.3480 0.5000
06:47 4.8 4.2 96 153 0.3 1.4 1023.7 0.3480 0.5000
06:58 4.9 4.3 96 180 0.3 0.8 1023.7 0.2320 0.5000
07:08 5 4.4 96 270 0.3 1.9 1023.7 0.3480 0.6000
07:18 5.2 4.6 96 308 0.3 1.4 1023.7 0.2320 0.6000
07:28 5.3 4.7 96 270 0.3 1.4 1023.8 0.1160 0.6000
07:38 5.4 4.8 96 308 0.3 1.9 1023.9 0.1160 0.6000
07:48 5.6 5 96 315 0.3 1.7 1024 0.1160 0.6000
07:58 5.7 5.1 96 8 0.3 0.8 1024.1 0.1160 0.6000
08:09 5.9 5.3 96 270 0.6 1.4 1023.9 0.0000 0.6000
08:19 6 5.4 96 135 0.3 1.7 1024 0.0000 0.6000
08:28 6.2 5.6 96 270 0.3 1.9 1024.3 0.0000 0.6000
08:39 6.4 5.8 96 270 0.3 1.4 1024.5 0.0000 0.6000
08:49 6.5 5.9 96 315 0.3 1.4 1024.6 0.0000 0.6000
08:59 6.7 6 95 140 0.3 2.2 1024.6 0.0000 0.6000
09:08 6.9 6.2 95 270 0.3 0.8 1024.6 0.0000 0.6000
09:19 7 6.3 95 315 0.3 0.6 1024.7 0.0000 0.6000
09:29 7.2 6.5 95 270 0.3 1.4 1024.5 0.0000 0.6000
09:39 7.4 6.7 95 90 0.3 0.8 1024.5 0.0000 0.6000
09:49 7.5 6.8 95 315 0.3 0.8 1024.6 0.0000 0.6000
09:59 7.6 6.9 95 270 0.3 1.4 1024.7
10:09 7.8 7.1 95 270 0.3 1.7 1024.7
10:19 8 7.2 95 90 0.3 1.4 1024.7
10:30 8.2 7.4 95 90 0.3 0.6 1024.7
10:40 8.4 7.6 95 333 0.3 1.4 1024.6
10:49 8.6 7.8 95 45 0.3 1.4 1024.7
11:00 8.7 7.9 95 90 0.3 0.8 1024.6
11:08 8.9 8.1 95 225 0.3 2.5 1024.6 0.0000 0.6000
11:18 9 8.2 95 270 0.3 1.7 1024.7 0.0000 0.6000
11:29 9.2 8.4 95 225 0.3 1.9 1024.7 0.0000 0.6000
11:38 9.4 8.6 95 180 0.3 1.7 1024.9 0.0000 0.6000
11:48 9.5 8.7 95 45 0.3 1.4 1024.8 0.0000 0.6000
11:58 9.7 8.9 95 45 0.3 1.4 1024.7 0.0000 0.6000
12:09 9.9 9.1 95 153 0.3 1.7 1024.7 0.0000 0.6000
12:18 10 9.2 95 270 0.3 0.8 1024.7 0.0000 0.6000
12:28 10.1 9.3 95 323 0.3 0.8 1024.9 0.0000 0.6000
12:39 10.2 9.4 95 239 0.3 1.9 1024.7 0.0000 0.6000
12:49 10.3 9.5 95 180 0.3 2.2 1024.7 0.0000 0.6000
12:59 10.5 9.7 95 206 0.3 0.8 1024.7 0.0000 0.6000
13:09 10.6 9.8 95 90 0.3 1.4 1024.6 0.0000 0.6000
13:19 10.8 10 95 143 0.6 1.7 1024.6 0.0000 0.6000
13:29 10.9 10 94 315 0.3 1.7 1024.6 0.0000 0.6000
13:39 11 10.1 94 225 0.3 0.8 1024.5 0.0000 0.6000
13:50 11 10.1 94 0.3 2.5 1024.6 0.0000 0.6000
13:59 11 10.1 94 225 0.3 1.7 1024.5 0.0000 0.6000
14:09 10.8 10 95 251 0.6 1.7 1024.5 0.0000 0.6000
14:19 10.6 9.8 95 315 0.3 1.9 1024.5 0.0000 0.6000
14:30 10.3 9.7 96 315 0.3 0.8 1024.5 0.0000 0.6000
14:40 10.2 9.6 96 225 0.3 1.7 1024.5 0.0000 0.6000
14:49 10.1 9.5 96 270 0.3 1.4 1024.5 0.0000 0.6000
15:00 10 9.4 96 225 0.3 1.4 1024.5 0.0000 0.6000
15:10 9.9 9.3 96 270 0.3 2.2 1024.3 0.0000 0.6000
15:20 9.7 9.1 96 270 0.3 1.9 1024.3 0.0000 0.6000
15:30 9.6 9 96 315 0.3 2.5 1024.1 0.0000 0.6000
15:40 9.4 8.8 96 0 0.3 0.8 1024.2 0.0000 0.6000
15:50 9.2 8.6 96 135 0.3 0.8 1024.4 0.0000 0.6000
16:00 9.1 8.5 96 30 0.3 0.6 1024.3 0.0000 0.6000
16:11 9.1 8.5 96 270 0.3 0.8 1024.3 0.0000 0.6000
16:20 9 8.4 96 90 0.3 0.8 1024.1 0.0000 0.6000
16:30 8.9 8.3 96 225 0.3 1.7 1024 0.0000 0.6000
16:40 8.8 8.2 96 225 0.3 1.9 1024 0.0000 0.6000

DAY STATISTIC

2020-10-31
TEMPERATURE
AVERAGE
6.8
HIGH
11.0
13:39
LOW
3.5
01:02
PRESSURE
AVERAGE
1024.3
HIGH
1024.9
11:38
LOW
1023.6
02:23
DEWPOINT
AVERAGE
6.1
HIGH
10.1
13:39
LOW
2.9
01:02
HUMIDITY
AVERAGE
96
HIGH
96
00:02
LOW
94
13:29
WIND SPEED
AVERAGE
0.3
HIGH
0.6
03:43
WIND GUST
AVERAGE
1.3
HIGH
2.5
03:43
WIND DIRECTION
PREVAILING
W
30.3%
N
5.1
NE
8.1
E
9.1
SE
11.1
S
3.0
SW
14.1
W
30.3
NW
17.2
PRECIPITATION
RAIN HOUR
0.3
RAIN DAY
0.6
TEMPERATURE (°C)
LOW
3.5
HIGH
11.0
AVERAGE
6.8
PRESSURE (hpa)
LOW
1023.6
HIGH
1024.9
AVERAGE
1024.3
DEVICE